sensor_id;sensor_type;location;lat;lon;timestamp;temperature;humidity
33109;HTU21D;19481;51.118;6.940;2023-04-03T00:04:55;1.16;69.56
33109;HTU21D;19481;51.118;6.940;2023-04-03T00:09:57;1.10;69.53
33109;HTU21D;19481;51.118;6.940;2023-04-03T00:15:00;1.18;69.36
33109;HTU21D;19481;51.118;6.940;2023-04-03T00:20:02;1.10;69.44
33109;HTU21D;19481;51.118;6.940;2023-04-03T00:25:04;1.04;69.52
33109;HTU21D;19481;51.118;6.940;2023-04-03T00:30:13;0.97;69.53
33109;HTU21D;19481;51.118;6.940;2023-04-03T00:35:15;0.89;70.00
33109;HTU21D;19481;51.118;6.940;2023-04-03T00:40:17;0.93;70.44
33109;HTU21D;19481;51.118;6.940;2023-04-03T00:45:31;0.86;69.84
33109;HTU21D;19481;51.118;6.940;2023-04-03T00:50:35;0.73;70.16
33109;HTU21D;19481;51.118;6.940;2023-04-03T00:55:38;0.68;70.61
33109;HTU21D;19481;51.118;6.940;2023-04-03T01:00:46;0.53;70.61
33109;HTU21D;19481;51.118;6.940;2023-04-03T01:05:48;0.44;71.22
33109;HTU21D;19481;51.118;6.940;2023-04-03T01:10:50;0.37;71.41
33109;HTU21D;19481;51.118;6.940;2023-04-03T01:15:53;0.36;71.08
33109;HTU21D;19481;51.118;6.940;2023-04-03T01:21:18;0.28;70.58
33109;HTU21D;19481;51.118;6.940;2023-04-03T01:26:25;0.20;71.17
33109;HTU21D;19481;51.118;6.940;2023-04-03T01:36:37;0.15;70.84
33109;HTU21D;19481;51.118;6.940;2023-04-03T01:41:38;0.13;70.97
33109;HTU21D;19481;51.118;6.940;2023-04-03T01:46:40;0.04;71.17
33109;HTU21D;19481;51.118;6.940;2023-04-03T01:51:44;0.05;71.53
33109;HTU21D;19481;51.118;6.940;2023-04-03T01:56:45;0.27;71.57
33109;HTU21D;19481;51.118;6.940;2023-04-03T02:01:47;0.09;71.58
33109;HTU21D;19481;51.118;6.940;2023-04-03T02:06:50;0.03;71.44
33109;HTU21D;19481;51.118;6.940;2023-04-03T02:11:52;0.03;71.55
33109;HTU21D;19481;51.118;6.940;2023-04-03T02:16:53;0.02;71.61
33109;HTU21D;19481;51.118;6.940;2023-04-03T02:21:56;-0.08;71.23
33109;HTU21D;19481;51.118;6.940;2023-04-03T02:26:58;-0.10;70.97
33109;HTU21D;19481;51.118;6.940;2023-04-03T02:32:00;-0.17;70.86
33109;HTU21D;19481;51.118;6.940;2023-04-03T02:37:03;-0.21;70.73
33109;HTU21D;19481;51.118;6.940;2023-04-03T02:42:04;-0.26;70.87
33109;HTU21D;19481;51.118;6.940;2023-04-03T02:47:06;-0.32;70.99
33109;HTU21D;19481;51.118;6.940;2023-04-03T02:52:09;-0.34;70.97
33109;HTU21D;19481;51.118;6.940;2023-04-03T02:57:10;-0.31;70.84
33109;HTU21D;19481;51.118;6.940;2023-04-03T03:02:12;-0.39;70.77
33109;HTU21D;19481;51.118;6.940;2023-04-03T03:07:15;-0.42;71.01
33109;HTU21D;19481;51.118;6.940;2023-04-03T03:12:17;-0.42;71.39
33109;HTU21D;19481;51.118;6.940;2023-04-03T03:17:21;-0.50;71.29
33109;HTU21D;19481;51.118;6.940;2023-04-03T03:22:25;-0.41;71.36
33109;HTU21D;19481;51.118;6.940;2023-04-03T03:27:27;-0.47;71.31
33109;HTU21D;19481;51.118;6.940;2023-04-03T03:32:28;-0.50;71.26
33109;HTU21D;19481;51.118;6.940;2023-04-03T03:37:31;-0.49;71.30
33109;HTU21D;19481;51.118;6.940;2023-04-03T03:42:33;-0.45;71.38
33109;HTU21D;19481;51.118;6.940;2023-04-03T03:47:34;-0.44;71.49
33109;HTU21D;19481;51.118;6.940;2023-04-03T03:52:38;-0.35;71.52
33109;HTU21D;19481;51.118;6.940;2023-04-03T03:57:40;-0.16;71.40
33109;HTU21D;19481;51.118;6.940;2023-04-03T04:02:41;0.14;71.19
33109;HTU21D;19481;51.118;6.940;2023-04-03T04:07:45;0.59;69.37
33109;HTU21D;19481;51.118;6.940;2023-04-03T04:12:46;0.76;68.42
33109;HTU21D;19481;51.118;6.940;2023-04-03T04:17:49;0.79;68.06
33109;HTU21D;19481;51.118;6.940;2023-04-03T04:22:52;0.92;67.62
33109;HTU21D;19481;51.118;6.940;2023-04-03T04:27:53;1.11;67.36
33109;HTU21D;19481;51.118;6.940;2023-04-03T04:32:55;1.09;67.21
33109;HTU21D;19481;51.118;6.940;2023-04-03T04:37:58;1.14;67.13
33109;HTU21D;19481;51.118;6.940;2023-04-03T04:43:00;1.18;67.21
33109;HTU21D;19481;51.118;6.940;2023-04-03T04:48:01;1.24;67.05
33109;HTU21D;19481;51.118;6.940;2023-04-03T04:53:04;1.10;67.27
33109;HTU21D;19481;51.118;6.940;2023-04-03T04:58:06;1.18;67.55
33109;HTU21D;19481;51.118;6.940;2023-04-03T05:03:07;1.08;67.53
33109;HTU21D;19481;51.118;6.940;2023-04-03T05:08:10;1.12;67.39
33109;HTU21D;19481;51.118;6.940;2023-04-03T05:13:12;1.17;67.60
33109;HTU21D;19481;51.118;6.940;2023-04-03T05:18:13;1.16;67.55
33109;HTU21D;19481;51.118;6.940;2023-04-03T05:23:17;1.14;67.64
33109;HTU21D;19481;51.118;6.940;2023-04-03T05:28:18;1.19;67.71
33109;HTU21D;19481;51.118;6.940;2023-04-03T05:33:20;1.31;67.24
33109;HTU21D;19481;51.118;6.940;2023-04-03T05:38:23;1.41;66.92
33109;HTU21D;19481;51.118;6.940;2023-04-03T05:43:25;1.51;66.74
33109;HTU21D;19481;51.118;6.940;2023-04-03T05:48:27;1.58;66.52
33109;HTU21D;19481;51.118;6.940;2023-04-03T05:53:31;1.68;66.15
33109;HTU21D;19481;51.118;6.940;2023-04-03T05:58:33;1.75;66.12
33109;HTU21D;19481;51.118;6.940;2023-04-03T06:03:34;1.94;65.84
33109;HTU21D;19481;51.118;6.940;2023-04-03T06:08:37;2.08;65.43
33109;HTU21D;19481;51.118;6.940;2023-04-03T06:13:39;2.22;65.04
33109;HTU21D;19481;51.118;6.940;2023-04-03T06:18:41;2.36;64.82
33109;HTU21D;19481;51.118;6.940;2023-04-03T06:23:44;2.53;64.48
33109;HTU21D;19481;51.118;6.940;2023-04-03T06:28:46;5.50;57.80
33109;HTU21D;19481;51.118;6.940;2023-04-03T06:33:47;6.66;57.00
33109;HTU21D;19481;51.118;6.940;2023-04-03T06:38:51;4.46;64.82
33109;HTU21D;19481;51.118;6.940;2023-04-03T06:43:52;4.26;65.53
33109;HTU21D;19481;51.118;6.940;2023-04-03T06:48:56;4.19;64.68
33109;HTU21D;19481;51.118;6.940;2023-04-03T06:54:00;8.98;52.24
33109;HTU21D;19481;51.118;6.940;2023-04-03T06:59:02;10.98;52.26
33109;HTU21D;19481;51.118;6.940;2023-04-03T07:04:04;12.07;53.35
33109;HTU21D;19481;51.118;6.940;2023-04-03T07:09:07;13.38;52.43
33109;HTU21D;19481;51.118;6.940;2023-04-03T07:14:09;13.54;55.81
33109;HTU21D;19481;51.118;6.940;2023-04-03T07:19:10;14.43;55.66
33109;HTU21D;19481;51.118;6.940;2023-04-03T07:24:14;14.50;55.87
33109;HTU21D;19481;51.118;6.940;2023-04-03T07:29:16;14.19;57.99
33109;HTU21D;19481;51.118;6.940;2023-04-03T07:34:17;14.47;57.99
33109;HTU21D;19481;51.118;6.940;2023-04-03T07:39:20;14.79;56.53
33109;HTU21D;19481;51.118;6.940;2023-04-03T07:44:22;14.89;55.94
33109;HTU21D;19481;51.118;6.940;2023-04-03T07:49:23;15.42;55.07
33109;HTU21D;19481;51.118;6.940;2023-04-03T07:54:27;16.77;50.68
33109;HTU21D;19481;51.118;6.940;2023-04-03T07:59:29;16.84;51.72
33109;HTU21D;19481;51.118;6.940;2023-04-03T08:04:31;16.13;54.27
33109;HTU21D;19481;51.118;6.940;2023-04-03T08:09:33;15.85;53.05
33109;HTU21D;19481;51.118;6.940;2023-04-03T08:14:35;13.94;59.48
33109;HTU21D;19481;51.118;6.940;2023-04-03T08:19:37;14.25;51.99
33109;HTU21D;19481;51.118;6.940;2023-04-03T08:24:40;15.17;47.63
33109;HTU21D;19481;51.118;6.940;2023-04-03T08:29:42;15.04;48.10
33109;HTU21D;19481;51.118;6.940;2023-04-03T08:34:44;15.88;45.35
33109;HTU21D;19481;51.118;6.940;2023-04-03T08:39:47;14.47;46.43
33109;HTU21D;19481;51.118;6.940;2023-04-03T08:44:53;13.21;43.93
33109;HTU21D;19481;51.118;6.940;2023-04-03T08:49:57;10.39;25.46
33109;HTU21D;19481;51.118;6.940;2023-04-03T08:55:03;11.78;46.05
33109;HTU21D;19481;51.118;6.940;2023-04-03T09:00:16;12.08;36.47
33109;HTU21D;19481;51.118;6.940;2023-04-03T09:05:20;11.38;40.03
33109;HTU21D;19481;51.118;6.940;2023-04-03T09:10:32;11.53;38.89
33109;HTU21D;19481;51.118;6.940;2023-04-03T09:15:35;11.62;39.53
33109;HTU21D;19481;51.118;6.940;2023-04-03T09:20:42;11.51;36.36
33109;HTU21D;19481;51.118;6.940;2023-04-03T09:25:46;12.01;37.56
33109;HTU21D;19481;51.118;6.940;2023-04-03T09:30:48;12.52;37.08
33109;HTU21D;19481;51.118;6.940;2023-04-03T09:35:50;12.18;37.87
33109;HTU21D;19481;51.118;6.940;2023-04-03T09:41:06;12.42;31.68
33109;HTU21D;19481;51.118;6.940;2023-04-03T09:46:24;12.37;29.29
33109;HTU21D;19481;51.118;6.940;2023-04-03T09:51:27;12.57;37.96
33109;HTU21D;19481;51.118;6.940;2023-04-03T09:56:31;12.59;37.96
33109;HTU21D;19481;51.118;6.940;2023-04-03T10:01:34;12.84;37.46
33109;HTU21D;19481;51.118;6.940;2023-04-03T10:06:38;13.03;35.53
33109;HTU21D;19481;51.118;6.940;2023-04-03T10:11:58;12.66;28.16
33109;HTU21D;19481;51.118;6.940;2023-04-03T10:17:05;12.45;36.02
33109;HTU21D;19481;51.118;6.940;2023-04-03T10:22:21;12.13;32.89
33109;HTU21D;19481;51.118;6.940;2023-04-03T10:27:35;13.23;30.96
33109;HTU21D;19481;51.118;6.940;2023-04-03T10:32:47;13.25;32.06
33109;HTU21D;19481;51.118;6.940;2023-04-03T10:38:01;13.69;31.25
33109;HTU21D;19481;51.118;6.940;2023-04-03T10:43:12;13.39;32.82
33109;HTU21D;19481;51.118;6.940;2023-04-03T10:48:27;12.01;34.39
33109;HTU21D;19481;51.118;6.940;2023-04-03T10:53:37;12.76;33.55
33109;HTU21D;19481;51.118;6.940;2023-04-03T10:58:43;13.60;31.58
33109;HTU21D;19481;51.118;6.940;2023-04-03T11:03:49;13.52;30.47
33109;HTU21D;19481;51.118;6.940;2023-04-03T11:08:57;13.41;35.16
33109;HTU21D;19481;51.118;6.940;2023-04-03T11:14:09;14.55;27.29
33109;HTU21D;19481;51.118;6.940;2023-04-03T11:19:19;13.82;33.54
33109;HTU21D;19481;51.118;6.940;2023-04-03T11:24:26;13.12;31.96
33109;HTU21D;19481;51.118;6.940;2023-04-03T11:29:32;13.64;33.18
33109;HTU21D;19481;51.118;6.940;2023-04-03T11:34:38;14.09;33.70
33109;HTU21D;19481;51.118;6.940;2023-04-03T11:39:54;14.14;26.75
33109;HTU21D;19481;51.118;6.940;2023-04-03T11:45:24;14.29;19.89
33109;HTU21D;19481;51.118;6.940;2023-04-03T11:50:40;13.94;22.26
33109;HTU21D;19481;51.118;6.940;2023-04-03T11:55:56;13.62;33.50
33109;HTU21D;19481;51.118;6.940;2023-04-03T12:01:08;14.50;21.92
33109;HTU21D;19481;51.118;6.940;2023-04-03T12:06:43;12.93;19.97
33109;HTU21D;19481;51.118;6.940;2023-04-03T12:11:51;13.01;33.10
33109;HTU21D;19481;51.118;6.940;2023-04-03T12:16:55;12.16;28.16
33109;HTU21D;19481;51.118;6.940;2023-04-03T12:22:15;13.24;24.66
33109;HTU21D;19481;51.118;6.940;2023-04-03T12:27:23;12.92;30.14
33109;HTU21D;19481;51.118;6.940;2023-04-03T12:32:36;12.04;27.12
33109;HTU21D;19481;51.118;6.940;2023-04-03T12:38:14;12.00;21.18
33109;HTU21D;19481;51.118;6.940;2023-04-03T12:43:29;11.67;29.24
33109;HTU21D;19481;51.118;6.940;2023-04-03T12:48:39;11.27;32.39
33109;HTU21D;19481;51.118;6.940;2023-04-03T12:53:48;11.13;33.98
33109;HTU21D;19481;51.118;6.940;2023-04-03T12:58:52;11.43;32.87
33109;HTU21D;19481;51.118;6.940;2023-04-03T13:03:57;10.94;32.54
33109;HTU21D;19481;51.118;6.940;2023-04-03T13:09:01;11.13;33.21
33109;HTU21D;19481;51.118;6.940;2023-04-03T13:14:04;11.29;31.70
33109;HTU21D;19481;51.118;6.940;2023-04-03T13:19:16;11.18;31.40
33109;HTU21D;19481;51.118;6.940;2023-04-03T13:24:18;11.67;31.88
33109;HTU21D;19481;51.118;6.940;2023-04-03T13:29:23;11.53;31.76
33109;HTU21D;19481;51.118;6.940;2023-04-03T13:34:29;11.82;30.96
33109;HTU21D;19481;51.118;6.940;2023-04-03T13:39:38;12.04;32.09
33109;HTU21D;19481;51.118;6.940;2023-04-03T13:44:40;11.98;32.48
33109;HTU21D;19481;51.118;6.940;2023-04-03T13:49:44;11.76;29.37
33109;HTU21D;19481;51.118;6.940;2023-04-03T13:54:47;12.41;31.49
33109;HTU21D;19481;51.118;6.940;2023-04-03T13:59:52;12.37;32.04
33109;HTU21D;19481;51.118;6.940;2023-04-03T14:04:58;12.63;31.86
33109;HTU21D;19481;51.118;6.940;2023-04-03T14:10:01;12.35;32.67
33109;HTU21D;19481;51.118;6.940;2023-04-03T14:15:06;12.16;32.14
33109;HTU21D;19481;51.118;6.940;2023-04-03T14:20:16;11.75;28.90
33109;HTU21D;19481;51.118;6.940;2023-04-03T14:25:19;12.13;32.44
33109;HTU21D;19481;51.118;6.940;2023-04-03T14:30:24;11.75;31.67
33109;HTU21D;19481;51.118;6.940;2023-04-03T14:35:29;11.41;25.97
33109;HTU21D;19481;51.118;6.940;2023-04-03T14:40:30;11.90;32.09
33109;HTU21D;19481;51.118;6.940;2023-04-03T14:45:32;12.48;31.51
33109;HTU21D;19481;51.118;6.940;2023-04-03T14:50:35;12.33;32.12
33109;HTU21D;19481;51.118;6.940;2023-04-03T14:55:37;12.33;32.56
33109;HTU21D;19481;51.118;6.940;2023-04-03T15:00:38;12.43;32.13
33109;HTU21D;19481;51.118;6.940;2023-04-03T15:05:42;12.10;32.72
33109;HTU21D;19481;51.118;6.940;2023-04-03T15:10:44;11.90;33.22
33109;HTU21D;19481;51.118;6.940;2023-04-03T15:15:46;11.77;33.05
33109;HTU21D;19481;51.118;6.940;2023-04-03T15:20:50;11.69;32.19
33109;HTU21D;19481;51.118;6.940;2023-04-03T15:25:52;12.02;32.57
33109;HTU21D;19481;51.118;6.940;2023-04-03T15:30:54;11.49;32.76
33109;HTU21D;19481;51.118;6.940;2023-04-03T15:35:57;11.28;33.08
33109;HTU21D;19481;51.118;6.940;2023-04-03T15:40:59;11.26;33.37
33109;HTU21D;19481;51.118;6.940;2023-04-03T15:46:01;11.17;33.24
33109;HTU21D;19481;51.118;6.940;2023-04-03T15:51:05;11.07;33.41
33109;HTU21D;19481;51.118;6.940;2023-04-03T15:56:06;11.00;32.66
33109;HTU21D;19481;51.118;6.940;2023-04-03T16:01:10;10.75;33.81
33109;HTU21D;19481;51.118;6.940;2023-04-03T16:06:14;10.66;33.72
33109;HTU21D;19481;51.118;6.940;2023-04-03T16:11:16;10.58;33.79
33109;HTU21D;19481;51.118;6.940;2023-04-03T16:16:18;10.56;33.91
33109;HTU21D;19481;51.118;6.940;2023-04-03T16:21:21;10.37;33.65
33109;HTU21D;19481;51.118;6.940;2023-04-03T16:26:24;10.18;34.50
33109;HTU21D;19481;51.118;6.940;2023-04-03T16:31:26;10.07;34.77
33109;HTU21D;19481;51.118;6.940;2023-04-03T16:36:29;9.92;35.01
33109;HTU21D;19481;51.118;6.940;2023-04-03T16:41:31;9.79;35.19
33109;HTU21D;19481;51.118;6.940;2023-04-03T16:46:33;9.53;35.53
33109;HTU21D;19481;51.118;6.940;2023-04-03T16:51:36;9.30;35.73
33109;HTU21D;19481;51.118;6.940;2023-04-03T16:56:37;9.33;35.81
33109;HTU21D;19481;51.118;6.940;2023-04-03T17:01:39;9.23;35.82
33109;HTU21D;19481;51.118;6.940;2023-04-03T17:06:42;9.21;35.74
33109;HTU21D;19481;51.118;6.940;2023-04-03T17:11:43;9.20;35.89
33109;HTU21D;19481;51.118;6.940;2023-04-03T17:16:46;9.01;36.37
33109;HTU21D;19481;51.118;6.940;2023-04-03T17:21:49;8.80;36.67
33109;HTU21D;19481;51.118;6.940;2023-04-03T17:26:51;8.66;36.77
33109;HTU21D;19481;51.118;6.940;2023-04-03T17:31:52;8.56;37.05
33109;HTU21D;19481;51.118;6.940;2023-04-03T17:36:55;8.35;37.19
33109;HTU21D;19481;51.118;6.940;2023-04-03T17:41:57;8.19;37.40
33109;HTU21D;19481;51.118;6.940;2023-04-03T17:47:01;8.06;37.67
33109;HTU21D;19481;51.118;6.940;2023-04-03T17:52:04;7.83;37.67
33109;HTU21D;19481;51.118;6.940;2023-04-03T17:57:06;7.68;37.94
33109;HTU21D;19481;51.118;6.940;2023-04-03T18:02:08;7.55;37.92
33109;HTU21D;19481;51.118;6.940;2023-04-03T18:07:11;7.44;37.98
33109;HTU21D;19481;51.118;6.940;2023-04-03T18:12:12;7.33;38.37
33109;HTU21D;19481;51.118;6.940;2023-04-03T18:17:14;7.20;38.53
33109;HTU21D;19481;51.118;6.940;2023-04-03T18:22:21;7.09;38.72
33109;HTU21D;19481;51.118;6.940;2023-04-03T18:27:25;6.98;38.95
33109;HTU21D;19481;51.118;6.940;2023-04-03T18:32:27;6.85;39.20
33109;HTU21D;19481;51.118;6.940;2023-04-03T18:37:30;6.78;39.34
33109;HTU21D;19481;51.118;6.940;2023-04-03T18:42:31;6.72;39.23
33109;HTU21D;19481;51.118;6.940;2023-04-03T18:47:33;6.65;39.33
33109;HTU21D;19481;51.118;6.940;2023-04-03T18:52:37;6.53;39.52
33109;HTU21D;19481;51.118;6.940;2023-04-03T18:57:39;6.41;39.76
33109;HTU21D;19481;51.118;6.940;2023-04-03T19:02:40;6.36;39.86
33109;HTU21D;19481;51.118;6.940;2023-04-03T19:07:43;6.30;39.81
33109;HTU21D;19481;51.118;6.940;2023-04-03T19:12:46;6.25;39.87
33109;HTU21D;19481;51.118;6.940;2023-04-03T19:17:49;6.17;40.03
33109;HTU21D;19481;51.118;6.940;2023-04-03T19:22:52;6.09;40.18
33109;HTU21D;19481;51.118;6.940;2023-04-03T19:27:54;6.04;40.28
33109;HTU21D;19481;51.118;6.940;2023-04-03T19:32:56;5.95;40.49
33109;HTU21D;19481;51.118;6.940;2023-04-03T19:37:59;5.84;40.71
33109;HTU21D;19481;51.118;6.940;2023-04-03T19:43:00;5.77;40.88
33109;HTU21D;19481;51.118;6.940;2023-04-03T19:48:02;5.70;41.08
33109;HTU21D;19481;51.118;6.940;2023-04-03T19:53:06;5.59;41.38
33109;HTU21D;19481;51.118;6.940;2023-04-03T19:58:10;5.54;41.37
33109;HTU21D;19481;51.118;6.940;2023-04-03T20:03:12;5.51;41.39
33109;HTU21D;19481;51.118;6.940;2023-04-03T20:08:15;5.39;41.71
33109;HTU21D;19481;51.118;6.940;2023-04-03T20:13:17;5.36;41.76
33109;HTU21D;19481;51.118;6.940;2023-04-03T20:18:19;5.30;41.82
33109;HTU21D;19481;51.118;6.940;2023-04-03T20:23:22;5.24;41.96
33109;HTU21D;19481;51.118;6.940;2023-04-03T20:28:25;5.22;41.97
33109;HTU21D;19481;51.118;6.940;2023-04-03T20:33:27;5.11;42.24
33109;HTU21D;19481;51.118;6.940;2023-04-03T20:38:30;4.94;42.68
33109;HTU21D;19481;51.118;6.940;2023-04-03T20:43:32;4.89;42.67
33109;HTU21D;19481;51.118;6.940;2023-04-03T20:48:34;4.80;42.82
33109;HTU21D;19481;51.118;6.940;2023-04-03T20:53:37;4.76;42.93
33109;HTU21D;19481;51.118;6.940;2023-04-03T20:58:39;4.71;42.97
33109;HTU21D;19481;51.118;6.940;2023-04-03T21:03:43;4.66;43.00
33109;HTU21D;19481;51.118;6.940;2023-04-03T21:20:06;4.48;43.35
33109;HTU21D;19481;51.118;6.940;2023-04-03T21:25:09;4.43;43.51
33109;HTU21D;19481;51.118;6.940;2023-04-03T21:30:11;4.39;43.51
33109;HTU21D;19481;51.118;6.940;2023-04-03T21:35:16;4.34;43.70
33109;HTU21D;19481;51.118;6.940;2023-04-03T21:40:17;4.23;43.96
33109;HTU21D;19481;51.118;6.940;2023-04-03T21:45:19;4.13;44.20
33109;HTU21D;19481;51.118;6.940;2023-04-03T21:50:22;3.98;44.62
33109;HTU21D;19481;51.118;6.940;2023-04-03T21:55:24;3.82;45.03
33109;HTU21D;19481;51.118;6.940;2023-04-03T22:00:26;3.60;45.55
33109;HTU21D;19481;51.118;6.940;2023-04-03T22:05:30;3.46;45.78
33109;HTU21D;19481;51.118;6.940;2023-04-03T22:10:32;3.28;46.28
33109;HTU21D;19481;51.118;6.940;2023-04-03T22:15:34;3.25;46.28
33109;HTU21D;19481;51.118;6.940;2023-04-03T22:20:42;3.14;49.90
33109;HTU21D;19481;51.118;6.940;2023-04-03T22:25:56;3.12;46.42
33109;HTU21D;19481;51.118;6.940;2023-04-03T22:30:59;3.03;46.37
33109;HTU21D;19481;51.118;6.940;2023-04-03T22:36:03;2.98;46.51
33109;HTU21D;19481;51.118;6.940;2023-04-03T22:41:06;2.80;46.87
33109;HTU21D;19481;51.118;6.940;2023-04-03T22:46:08;2.84;46.77
33109;HTU21D;19481;51.118;6.940;2023-04-03T22:51:11;2.72;46.93
33109;HTU21D;19481;51.118;6.940;2023-04-03T22:56:13;2.62;47.46
33109;HTU21D;19481;51.118;6.940;2023-04-03T23:01:14;2.55;47.56
33109;HTU21D;19481;51.118;6.940;2023-04-03T23:06:20;2.47;47.64
33109;HTU21D;19481;51.118;6.940;2023-04-03T23:11:21;2.36;48.11
33109;HTU21D;19481;51.118;6.940;2023-04-03T23:16:23;2.34;48.08
33109;HTU21D;19481;51.118;6.940;2023-04-03T23:21:26;2.28;48.15
33109;HTU21D;19481;51.118;6.940;2023-04-03T23:26:27;2.27;48.37
33109;HTU21D;19481;51.118;6.940;2023-04-03T23:31:29;2.19;48.53
33109;HTU21D;19481;51.118;6.940;2023-04-03T23:36:32;2.02;48.87
33109;HTU21D;19481;51.118;6.940;2023-04-03T23:41:34;1.97;49.03
33109;HTU21D;19481;51.118;6.940;2023-04-03T23:46:36;1.82;49.50
33109;HTU21D;19481;51.118;6.940;2023-04-03T23:51:39;1.75;49.76
33109;HTU21D;19481;51.118;6.940;2023-04-03T23:56:41;1.72;50.04
